Time;durP1;ratioP1;P1;durP2;ratioP2;P2;SDS_P1;SDS_P2;PMS_P1;PMS_P2;Temp;Humidity;BMP_temperature;BMP_pressure;BME280_temperature;BME280_humidity;BME280_pressure;Samples;Min_cycle;Max_cycle;Signal;HPM_P1;HPM_P2
2022/05/14 00:01:50;;;;;;;0.30;0.30;;;11.60;99.90;;;;;;5073981;28;20630;-72
2022/05/14 00:04:16;;;;;;;0.30;0.30;;;11.60;99.90;;;;;;5073896;28;20181;-72
2022/05/14 00:06:43;;;;;;;0.30;0.30;;;11.60;99.90;;;;;;5074021;28;20482;-72
2022/05/14 00:09:08;;;;;;;0.73;0.73;;;11.70;99.90;;;;;;5074000;28;20174;-73
2022/05/14 00:14:19;;;;;;;0.30;0.30;;;11.70;99.90;;;;;;5074035;28;20222;-72
2022/05/14 00:16:45;;;;;;;0.30;0.30;;;11.60;99.90;;;;;;5074176;28;20211;-72
2022/05/14 00:19:11;;;;;;;0.30;0.30;;;11.70;99.90;;;;;;5072602;28;20411;-73
2022/05/14 00:21:37;;;;;;;0.30;0.30;;;11.60;99.90;;;;;;5073603;28;20780;-71
2022/05/14 00:24:06;;;;;;;0.30;0.30;;;11.60;99.90;;;;;;5073564;28;20480;-72
2022/05/14 00:26:33;;;;;;;0.30;0.30;;;11.60;99.90;;;;;;5073863;28;20443;-72
2022/05/14 00:29:02;;;;;;;0.30;0.30;;;11.60;99.90;;;;;;5073761;28;20450;-72
2022/05/14 00:31:29;;;;;;;0.30;0.30;;;11.60;99.90;;;;;;5072199;28;20864;-72
2022/05/14 00:33:55;;;;;;;0.30;0.30;;;11.60;99.90;;;;;;5072389;28;20454;-72
2022/05/14 00:36:21;;;;;;;0.30;0.30;;;11.70;99.90;;;;;;5073560;28;20464;-73
2022/05/14 00:38:47;;;;;;;0.40;0.40;;;11.60;99.90;;;;;;5073688;28;20265;-72
2022/05/14 00:41:12;;;;;;;0.30;0.30;;;11.60;99.90;;;;;;5073342;28;20169;-72
2022/05/14 00:43:55;;;;;;;0.30;0.30;;;11.60;99.90;;;;;;5073426;28;20565;-73
2022/05/14 00:46:32;;;;;;;0.30;0.30;;;11.60;99.90;;;;;;5073628;28;20526;-72
2022/05/14 00:48:59;;;;;;;0.30;0.30;;;11.60;99.90;;;;;;5073625;28;20486;-72
2022/05/14 00:51:28;;;;;;;0.30;0.30;;;11.70;99.90;;;;;;5073196;28;20447;-72
2022/05/14 00:54:01;;;;;;;0.30;0.30;;;11.70;99.90;;;;;;5073288;28;20456;-72
2022/05/14 00:56:31;;;;;;;0.30;0.30;;;11.80;99.90;;;;;;5073583;28;20416;-72
2022/05/14 00:59:11;;;;;;;0.30;0.30;;;11.70;99.90;;;;;;5073491;28;20170;-73
2022/05/14 01:01:37;;;;;;;0.30;0.30;;;11.80;99.90;;;;;;5076709;28;20404;-72
2022/05/14 01:04:04;;;;;;;0.30;0.30;;;11.90;99.90;;;;;;5077346;28;20916;-72
2022/05/14 01:06:30;;;;;;;0.30;0.30;;;11.90;99.90;;;;;;5077421;28;20767;-72
2022/05/14 01:08:58;;;;;;;0.30;0.30;;;12.00;99.90;;;;;;5077356;28;20403;-72
2022/05/14 01:11:26;;;;;;;0.30;0.30;;;12.00;99.90;;;;;;5077356;28;20486;-72
2022/05/14 01:13:52;;;;;;;0.30;0.30;;;12.00;99.90;;;;;;5077191;28;20431;-72
2022/05/14 01:16:20;;;;;;;0.30;0.30;;;12.00;99.90;;;;;;5077131;28;20445;-72
2022/05/14 01:18:46;;;;;;;0.30;0.30;;;12.00;99.90;;;;;;5077134;28;20162;-73
2022/05/14 01:21:29;;;;;;;0.30;0.30;;;12.00;99.90;;;;;;5077000;28;20828;-72
2022/05/14 01:27:03;;;;;;;0.30;0.30;;;12.00;99.90;;;;;;5077285;28;20649;-72
2022/05/14 01:29:29;;;;;;;0.30;0.30;;;12.00;99.90;;;;;;5075625;28;20439;-72
2022/05/14 01:31:55;;;;;;;0.40;0.40;;;12.10;99.90;;;;;;5076798;28;20450;-72
2022/05/14 01:34:25;;;;;;;0.30;0.30;;;12.10;99.90;;;;;;5076862;28;20199;-72
2022/05/14 01:36:51;;;;;;;0.30;0.30;;;12.10;99.90;;;;;;5076932;28;20407;-72
2022/05/14 01:39:18;;;;;;;0.30;0.30;;;12.20;99.90;;;;;;5076863;28;20809;-72
2022/05/14 01:41:44;;;;;;;0.30;0.30;;;12.30;99.90;;;;;;5076525;28;20415;-73
2022/05/14 01:44:10;;;;;;;0.30;0.30;;;12.30;99.90;;;;;;5076568;28;20510;-73
2022/05/14 01:46:35;;;;;;;0.30;0.30;;;12.40;99.90;;;;;;5076790;28;20860;-72
2022/05/14 01:49:01;;;;;;;0.30;0.30;;;12.30;99.90;;;;;;5076540;28;20480;-72
2022/05/14 01:51:29;;;;;;;0.40;0.40;;;12.30;99.90;;;;;;5076171;28;20469;-72
2022/05/14 01:53:55;;;;;;;0.30;0.30;;;12.30;99.90;;;;;;5076438;28;20426;-72
2022/05/14 01:56:20;;;;;;;0.30;0.30;;;12.30;99.90;;;;;;5076587;28;20414;-72
2022/05/14 01:58:46;;;;;;;0.30;0.30;;;12.30;99.90;;;;;;5076410;28;20201;-73
2022/05/14 02:01:15;;;;;;;0.37;0.37;;;12.40;99.90;;;;;;5076415;28;20642;-72
2022/05/14 02:03:44;;;;;;;0.60;0.60;;;12.40;99.90;;;;;;5076211;28;20195;-72
2022/05/14 02:06:10;;;;;;;0.30;0.30;;;12.40;99.90;;;;;;5076204;28;20930;-72
2022/05/14 02:08:37;;;;;;;0.30;0.30;;;12.50;99.90;;;;;;5076139;28;20411;-73
2022/05/14 02:11:03;;;;;;;0.30;0.30;;;12.40;99.90;;;;;;5075311;28;20953;-73
2022/05/14 02:13:29;;;;;;;0.70;0.70;;;12.40;99.90;;;;;;5075443;28;20781;-73
2022/05/14 02:15:55;;;;;;;0.30;0.30;;;12.40;99.90;;;;;;5076063;28;20888;-72
2022/05/14 02:18:22;;;;;;;0.30;0.30;;;12.30;99.90;;;;;;5076305;28;20958;-72
2022/05/14 02:20:48;;;;;;;0.30;0.30;;;12.30;99.90;;;;;;5075863;28;20404;-72
2022/05/14 02:23:14;;;;;;;0.30;0.30;;;12.20;99.90;;;;;;5075990;28;20444;-73
2022/05/14 02:25:41;;;;;;;0.43;0.43;;;12.20;99.90;;;;;;5075958;28;20400;-72
2022/05/14 02:28:07;;;;;;;0.60;0.60;;;12.20;99.90;;;;;;5075895;28;20413;-73
2022/05/14 02:30:32;;;;;;;0.30;0.30;;;12.10;99.90;;;;;;5075620;28;20447;-71
2022/05/14 02:32:58;;;;;;;0.43;0.43;;;12.10;99.90;;;;;;5075833;28;20771;-72
2022/05/14 02:35:24;;;;;;;0.30;0.30;;;12.00;99.90;;;;;;5075660;28;20634;-72
2022/05/14 02:37:49;;;;;;;0.30;0.30;;;11.90;99.90;;;;;;5075692;28;20200;-72
2022/05/14 02:40:15;;;;;;;0.30;0.30;;;11.90;99.90;;;;;;5075441;28;20408;-73
2022/05/14 02:42:41;;;;;;;1.50;1.40;;;11.80;99.90;;;;;;5075717;28;20201;-72
2022/05/14 02:45:07;;;;;;;0.30;0.30;;;11.80;99.90;;;;;;5075656;28;20174;-72
2022/05/14 02:47:33;;;;;;;0.30;0.30;;;11.90;99.90;;;;;;5075627;28;20183;-72
2022/05/14 02:49:59;;;;;;;0.30;0.30;;;11.90;99.90;;;;;;5075495;28;20443;-72
2022/05/14 02:52:25;;;;;;;0.30;0.30;;;11.90;99.90;;;;;;5075408;28;20244;-72
2022/05/14 02:54:51;;;;;;;0.30;0.30;;;11.90;99.90;;;;;;5075261;28;20526;-72
2022/05/14 02:57:17;;;;;;;0.30;0.30;;;11.90;99.90;;;;;;5074111;28;20408;-73
2022/05/14 02:59:43;;;;;;;0.80;0.80;;;11.80;99.90;;;;;;5075460;28;20411;-73
2022/05/14 03:02:09;;;;;;;0.30;0.30;;;11.80;99.90;;;;;;5075153;28;20396;-72
2022/05/14 03:04:37;;;;;;;0.47;0.47;;;11.80;99.90;;;;;;5075038;28;20788;-72
2022/05/14 03:07:08;;;;;;;0.30;0.30;;;11.80;99.90;;;;;;5075068;28;20396;-72
2022/05/14 03:09:35;;;;;;;0.70;0.70;;;11.80;99.90;;;;;;5075011;28;20462;-73
2022/05/14 03:12:01;;;;;;;0.40;0.40;;;11.70;99.90;;;;;;5074895;28;20400;-72
2022/05/14 03:14:26;;;;;;;1.33;1.23;;;11.70;99.90;;;;;;5074846;28;20446;-72
2022/05/14 03:16:52;;;;;;;0.33;0.33;;;11.70;99.90;;;;;;5075147;28;20403;-72
2022/05/14 03:19:18;;;;;;;0.30;0.30;;;11.60;99.90;;;;;;5074995;28;20545;-72
2022/05/14 03:21:44;;;;;;;0.37;0.37;;;11.60;99.90;;;;;;5074673;28;20449;-73
2022/05/14 03:24:11;;;;;;;0.30;0.30;;;11.60;99.90;;;;;;5074111;28;20209;-72
2022/05/14 03:26:38;;;;;;;0.40;0.40;;;11.60;99.90;;;;;;5074765;28;20483;-72
2022/05/14 03:29:03;;;;;;;0.50;0.50;;;11.60;99.90;;;;;;5074748;28;20404;-72
2022/05/14 03:31:31;;;;;;;0.30;0.30;;;11.70;99.90;;;;;;5074390;28;20450;-73
2022/05/14 03:33:57;;;;;;;1.33;1.23;;;11.70;99.90;;;;;;5074930;28;20186;-72
2022/05/14 03:36:23;;;;;;;0.30;0.30;;;11.80;99.90;;;;;;5074491;28;20650;-72
2022/05/14 03:38:48;;;;;;;0.30;0.30;;;11.80;99.90;;;;;;5073433;28;20404;-73
2022/05/14 03:41:17;;;;;;;0.30;0.30;;;11.80;99.90;;;;;;5074198;28;20248;-73
2022/05/14 03:43:44;;;;;;;0.30;0.30;;;11.70;99.90;;;;;;5074467;28;20220;-72
2022/05/14 03:46:10;;;;;;;0.30;0.30;;;11.70;99.90;;;;;;5074703;28;20491;-73
2022/05/14 03:48:36;;;;;;;1.27;0.70;;;11.60;99.90;;;;;;5074427;28;20415;-73
2022/05/14 03:51:03;;;;;;;0.40;0.40;;;11.60;99.90;;;;;;5073980;28;20474;-73
2022/05/14 03:53:29;;;;;;;0.30;0.30;;;11.50;99.90;;;;;;5074051;28;20924;-72
2022/05/14 03:55:55;;;;;;;0.30;0.30;;;11.50;99.90;;;;;;5074116;28;20458;-72
2022/05/14 03:58:21;;;;;;;0.30;0.30;;;11.60;99.90;;;;;;5074180;28;20449;-73
2022/05/14 04:00:46;;;;;;;0.40;0.40;;;11.60;99.90;;;;;;5073930;28;20487;-73
2022/05/14 04:03:12;;;;;;;0.30;0.30;;;11.60;99.90;;;;;;5073910;28;20193;-72
2022/05/14 04:05:38;;;;;;;0.30;0.30;;;11.60;99.90;;;;;;5073967;28;20170;-73
2022/05/14 04:08:04;;;;;;;0.30;0.30;;;11.60;99.90;;;;;;5073971;28;20286;-72
2022/05/14 04:10:30;;;;;;;0.40;0.40;;;11.50;99.90;;;;;;5073479;28;20232;-72
2022/05/14 04:12:56;;;;;;;0.30;0.30;;;11.60;99.90;;;;;;5073725;28;20449;-73
2022/05/14 04:15:23;;;;;;;0.30;0.30;;;11.60;99.90;;;;;;5073844;28;20407;-72
2022/05/14 04:17:50;;;;;;;0.30;0.30;;;11.60;99.90;;;;;;5073783;28;20407;-72
2022/05/14 04:20:16;;;;;;;0.30;0.30;;;11.60;99.90;;;;;;5073555;28;20766;-72
2022/05/14 04:22:43;;;;;;;1.80;1.80;;;11.70;99.90;;;;;;5073455;28;20442;-72
2022/05/14 04:25:09;;;;;;;0.37;0.37;;;11.70;99.90;;;;;;5073762;28;20264;-72
2022/05/14 04:27:34;;;;;;;3.37;3.17;;;11.70;99.90;;;;;;5073747;28;20396;-73
2022/05/14 04:30:00;;;;;;;0.50;0.50;;;11.70;99.90;;;;;;5073475;28;20454;-72
2022/05/14 04:32:25;;;;;;;0.30;0.30;;;11.70;99.90;;;;;;5073587;28;20177;-72
2022/05/14 04:34:51;;;;;;;0.30;0.30;;;11.70;99.90;;;;;;5072748;28;20185;-73
2022/05/14 04:37:17;;;;;;;0.40;0.40;;;11.70;99.90;;;;;;5073595;28;20210;-72
2022/05/14 04:39:42;;;;;;;0.30;0.30;;;11.80;99.90;;;;;;5073608;28;20191;-72
2022/05/14 04:42:09;;;;;;;0.30;0.30;;;11.90;99.90;;;;;;5073421;28;20200;-72
2022/05/14 04:44:37;;;;;;;0.37;0.37;;;12.00;99.90;;;;;;5073595;28;20185;-72
2022/05/14 04:47:04;;;;;;;0.63;0.63;;;12.10;99.90;;;;;;5072136;28;20407;-73
2022/05/14 04:49:30;;;;;;;0.30;0.30;;;12.10;99.90;;;;;;5073609;28;20453;-72
2022/05/14 04:51:57;;;;;;;0.40;0.40;;;12.40;99.90;;;;;;5073099;28;20454;-72
2022/05/14 04:54:23;;;;;;;0.30;0.30;;;12.70;99.90;;;;;;5073306;28;20419;-72
2022/05/14 04:56:49;;;;;;;0.30;0.30;;;13.20;99.90;;;;;;5073229;28;20474;-73
2022/05/14 04:59:15;;;;;;;0.30;0.30;;;14.00;99.90;;;;;;5073506;28;20244;-73
2022/05/14 05:03:16;;;;;;;0.30;0.30;;;14.50;99.90;;;;;;5073257;28;20439;-73
2022/05/14 05:04:28;;;;;;;0.40;0.40;;;14.90;99.90;;;;;;5072984;28;20444;-73
2022/05/14 05:06:54;;;;;;;0.40;0.40;;;15.20;99.90;;;;;;5073369;28;20903;-73
2022/05/14 05:09:19;;;;;;;0.40;0.40;;;15.40;99.90;;;;;;5070954;28;20404;-72
2022/05/14 05:11:45;;;;;;;0.40;0.40;;;15.60;99.90;;;;;;5073090;28;20243;-73
2022/05/14 05:14:10;;;;;;;0.30;0.30;;;15.80;99.90;;;;;;5073089;28;20185;-73
2022/05/14 05:16:36;;;;;;;0.30;0.30;;;15.90;99.90;;;;;;5070836;28;20166;-73
2022/05/14 05:19:02;;;;;;;0.30;0.30;;;15.90;99.90;;;;;;5073109;28;20248;-72
2022/05/14 05:21:27;;;;;;;0.30;0.30;;;15.50;99.70;;;;;;5072973;28;20516;-73
2022/05/14 05:23:53;;;;;;;0.40;0.40;;;15.60;99.90;;;;;;5072809;28;20212;-73
2022/05/14 05:26:18;;;;;;;0.37;0.37;;;15.60;99.60;;;;;;5072900;28;20184;-72
2022/05/14 05:28:44;;;;;;;0.40;0.40;;;15.10;99.50;;;;;;5072870;28;20172;-72
2022/05/14 05:31:09;;;;;;;0.50;0.50;;;15.20;99.90;;;;;;5072989;28;20650;-72
2022/05/14 05:33:35;;;;;;;0.30;0.30;;;15.20;99.90;;;;;;5072771;28;20271;-73
2022/05/14 05:36:01;;;;;;;0.30;0.30;;;15.40;99.90;;;;;;5072726;28;20643;-73
2022/05/14 05:38:26;;;;;;;0.30;0.30;;;15.80;99.90;;;;;;5072948;28;20166;-72
2022/05/14 05:40:52;;;;;;;0.40;0.40;;;15.90;99.60;;;;;;5072424;28;20174;-73
2022/05/14 05:43:18;;;;;;;0.67;0.67;;;16.10;99.50;;;;;;5072675;28;20193;-73
2022/05/14 05:45:47;;;;;;;0.30;0.30;;;16.30;99.90;;;;;;5073142;28;20988;-72
2022/05/14 05:48:13;;;;;;;0.30;0.30;;;16.60;99.90;;;;;;5076692;28;20243;-73
2022/05/14 05:50:39;;;;;;;0.30;0.30;;;17.20;99.90;;;;;;5076241;28;20451;-73
2022/05/14 05:53:05;;;;;;;1.27;1.23;;;18.00;99.90;;;;;;5076490;28;20261;-73
2022/05/14 05:58:20;;;;;;;0.30;0.30;;;19.60;96.80;;;;;;5076528;28;20820;-73
2022/05/14 06:00:46;;;;;;;0.30;0.30;;;19.90;94.90;;;;;;5076055;28;20419;-73
2022/05/14 06:03:12;;;;;;;0.30;0.30;;;20.30;94.70;;;;;;5076214;28;20431;-73
2022/05/14 06:05:41;;;;;;;0.33;0.33;;;20.50;94.30;;;;;;5076181;28;20461;-73
2022/05/14 06:08:13;;;;;;;0.70;0.70;;;21.00;93.60;;;;;;5076097;28;20878;-73
2022/05/14 06:10:39;;;;;;;0.30;0.30;;;21.50;92.40;;;;;;5076037;28;20455;-73
2022/05/14 06:13:08;;;;;;;0.30;0.30;;;21.80;90.60;;;;;;5076102;28;20444;-74
2022/05/14 06:15:34;;;;;;;0.30;0.30;;;22.00;91.20;;;;;;5075965;28;20400;-73
2022/05/14 06:18:06;;;;;;;0.30;0.30;;;22.10;90.50;;;;;;5075820;28;20780;-74
2022/05/14 06:20:32;;;;;;;0.30;0.30;;;22.60;90.60;;;;;;5075712;28;20197;-74
2022/05/14 06:22:58;;;;;;;0.30;0.30;;;23.00;87.90;;;;;;5074412;28;20472;-74
2022/05/14 06:25:24;;;;;;;0.30;0.30;;;22.80;85.20;;;;;;5075194;28;20410;-74
2022/05/14 06:27:49;;;;;;;0.30;0.30;;;23.00;85.10;;;;;;5073544;28;20203;-74
2022/05/14 06:30:16;;;;;;;0.30;0.30;;;22.90;86.20;;;;;;5073071;28;20276;-74
2022/05/14 06:32:41;;;;;;;0.30;0.30;;;22.60;88.10;;;;;;5074368;28;20638;-74
2022/05/14 06:35:09;;;;;;;0.30;0.30;;;22.50;88.10;;;;;;5073373;28;20434;-74
2022/05/14 06:37:35;;;;;;;0.40;0.40;;;23.80;85.50;;;;;;5075430;28;20233;-74
2022/05/14 06:40:02;;;;;;;0.30;0.30;;;25.40;79.90;;;;;;5075193;28;20408;-74
2022/05/14 06:42:28;;;;;;;0.67;0.50;;;26.90;78.10;;;;;;5075358;28;20169;-74
2022/05/14 06:44:54;;;;;;;0.60;0.60;;;27.80;73.60;;;;;;5075415;28;20434;-74
2022/05/14 06:47:20;;;;;;;0.40;0.40;;;28.70;68.80;;;;;;5075566;28;20791;-74
2022/05/14 06:49:46;;;;;;;0.40;0.40;;;29.60;64.40;;;;;;5075434;28;20169;-74
2022/05/14 06:52:16;;;;;;;0.70;0.60;;;30.20;60.80;;;;;;5075154;28;20753;-74
2022/05/14 06:54:45;;;;;;;0.90;0.90;;;29.60;56.70;;;;;;5075254;28;20981;-74
2022/05/14 06:57:11;;;;;;;0.40;0.40;;;28.60;59.10;;;;;;5075115;28;20483;-74
2022/05/14 06:59:37;;;;;;;0.30;0.30;;;28.50;61.60;;;;;;5075016;28;20826;-74
2022/05/14 07:02:04;;;;;;;0.30;0.30;;;28.60;59.80;;;;;;5074915;28;20451;-74
2022/05/14 07:07:17;;;;;;;0.30;0.30;;;27.00;62.90;;;;;;5073285;28;20770;-74
2022/05/14 07:09:43;;;;;;;0.30;0.30;;;25.80;64.50;;;;;;5074201;28;20411;-74
2022/05/14 07:12:09;;;;;;;0.47;0.47;;;24.70;67.10;;;;;;5075272;28;20404;-74
2022/05/14 07:14:40;;;;;;;0.30;0.30;;;23.70;69.60;;;;;;5072607;28;20907;-74
2022/05/14 07:17:06;;;;;;;0.40;0.40;;;23.20;71.30;;;;;;5074779;28;20408;-74
2022/05/14 07:19:32;;;;;;;0.80;0.80;;;23.10;72.10;;;;;;5074410;28;20904;-74
2022/05/14 07:21:57;;;;;;;0.30;0.30;;;23.30;69.90;;;;;;5071939;28;20407;-74
2022/05/14 07:24:26;;;;;;;0.30;0.30;;;23.60;67.90;;;;;;5075270;28;20637;-73
2022/05/14 07:26:55;;;;;;;0.40;0.40;;;23.00;63.00;;;;;;5074812;28;20253;-73
2022/05/14 07:29:23;;;;;;;0.30;0.30;;;23.40;65.20;;;;;;5072574;28;20386;-73
2022/05/14 07:31:49;;;;;;;0.63;0.63;;;23.90;66.40;;;;;;5074553;28;20809;-72
2022/05/14 07:34:15;;;;;;;0.30;0.30;;;24.10;61.10;;;;;;5073845;28;20416;-72
2022/05/14 07:36:47;;;;;;;0.30;0.30;;;25.50;61.10;;;;;;5072994;28;20399;-72
2022/05/14 07:39:14;;;;;;;0.30;0.30;;;26.40;57.50;;;;;;5075030;28;20873;-73
2022/05/14 07:41:43;;;;;;;0.40;0.40;;;26.90;55.40;;;;;;5074322;28;20411;-74
2022/05/14 07:44:11;;;;;;;0.30;0.30;;;27.80;52.60;;;;;;5072542;28;20967;-74
2022/05/14 07:46:38;;;;;;;0.30;0.30;;;29.20;52.90;;;;;;5072370;28;20473;-74
2022/05/14 07:49:10;;;;;;;0.80;0.80;;;30.00;51.80;;;;;;5073996;28;20408;-74
2022/05/14 07:51:37;;;;;;;1.47;1.43;;;30.70;49.10;;;;;;5073949;28;20459;-74
2022/05/14 07:54:04;;;;;;;0.50;0.50;;;30.20;46.80;;;;;;5072128;28;20780;-74
2022/05/14 07:56:30;;;;;;;0.63;0.40;;;30.40;48.80;;;;;;5074061;28;20454;-74
2022/05/14 07:58:55;;;;;;;0.30;0.30;;;30.30;44.60;;;;;;5074239;28;20404;-74
2022/05/14 08:01:21;;;;;;;0.30;0.30;;;31.10;48.00;;;;;;5072650;28;20181;-74
2022/05/14 08:03:49;;;;;;;0.30;0.30;;;32.00;46.10;;;;;;5073811;28;20216;-74
2022/05/14 08:06:17;;;;;;;1.27;1.17;;;32.30;41.80;;;;;;5073889;28;20174;-74
2022/05/14 08:08:43;;;;;;;0.63;0.63;;;33.00;41.80;;;;;;5073986;28;20458;-74
2022/05/14 08:11:09;;;;;;;0.30;0.30;;;33.30;40.90;;;;;;5073616;28;20534;-74
2022/05/14 08:13:35;;;;;;;0.60;0.60;;;33.60;39.80;;;;;;5073628;28;20486;-74
2022/05/14 08:16:02;;;;;;;0.30;0.30;;;34.10;37.50;;;;;;5073828;28;20432;-74
2022/05/14 08:18:29;;;;;;;0.50;0.40;;;34.40;37.80;;;;;;5072821;28;20411;-74
2022/05/14 08:20:54;;;;;;;0.47;0.47;;;34.40;39.50;;;;;;5072036;28;20449;-74
2022/05/14 08:26:06;;;;;;;0.30;0.30;;;30.20;39.40;;;;;;5071205;28;20177;-74
2022/05/14 08:28:33;;;;;;;0.30;0.30;;;28.00;45.20;;;;;;5072932;28;20479;-74
2022/05/14 08:31:00;;;;;;;0.40;0.40;;;28.50;45.20;;;;;;5073549;28;20451;-74
2022/05/14 08:33:27;;;;;;;0.30;0.30;;;30.30;41.50;;;;;;5071090;28;20438;-74
2022/05/14 08:35:52;;;;;;;0.80;0.50;;;31.30;41.50;;;;;;5073026;28;20816;-74
2022/05/14 08:38:18;;;;;;;0.30;0.30;;;31.80;39.90;;;;;;5072936;28;20403;-74
2022/05/14 08:40:50;;;;;;;0.40;0.40;;;32.10;41.50;;;;;;5070821;28;20653;-74
2022/05/14 08:43:20;;;;;;;0.50;0.50;;;32.10;38.50;;;;;;5071453;28;20264;-74
2022/05/14 08:45:46;;;;;;;0.50;0.50;;;32.00;38.60;;;;;;5073416;28;20891;-74
2022/05/14 08:48:25;;;;;;;0.40;0.40;;;30.80;39.50;;;;;;5070873;28;20448;-74
2022/05/14 08:51:14;;;;;;;0.40;0.30;;;29.80;43.10;;;;;;5073200;28;20220;-74
2022/05/14 08:53:41;;;;;;;0.30;0.30;;;31.20;43.70;;;;;;5073252;28;20431;-73
2022/05/14 08:56:26;;;;;;;0.30;0.30;;;32.80;39.50;;;;;;5073419;28;20415;-74
2022/05/14 08:59:19;;;;;;;0.30;0.30;;;34.40;38.90;;;;;;5073458;28;20408;-73
2022/05/14 09:01:46;;;;;;;0.40;0.40;;;34.80;37.20;;;;;;5073150;28;20465;-74
2022/05/14 09:04:17;;;;;;;0.30;0.30;;;35.90;35.20;;;;;;5073208;28;20851;-74
2022/05/14 09:06:43;;;;;;;0.77;0.47;;;36.20;33.00;;;;;;5073413;28;20411;-74
2022/05/14 09:09:10;;;;;;;0.30;0.30;;;35.90;35.00;;;;;;5073330;28;20403;-74
2022/05/14 09:11:54;;;;;;;0.40;0.40;;;35.50;34.20;;;;;;5072819;28;20455;-74
2022/05/14 09:14:31;;;;;;;0.40;0.40;;;34.50;34.00;;;;;;5073277;28;20415;-73
2022/05/14 09:17:02;;;;;;;0.50;0.40;;;35.30;33.90;;;;;;5073275;28;20403;-74
2022/05/14 09:19:34;;;;;;;0.30;0.30;;;36.10;33.60;;;;;;5073158;28;20411;-74
2022/05/14 09:22:07;;;;;;;0.30;0.30;;;36.70;34.00;;;;;;5075259;28;20747;-74
2022/05/14 09:24:43;;;;;;;0.40;0.40;;;37.40;30.50;;;;;;5076979;28;20889;-74
2022/05/14 09:27:20;;;;;;;0.40;0.40;;;37.60;30.00;;;;;;5077289;28;20395;-74
2022/05/14 09:29:50;;;;;;;0.40;0.30;;;37.80;31.30;;;;;;5077053;28;20404;-74
2022/05/14 09:32:22;;;;;;;0.30;0.30;;;38.10;30.50;;;;;;5074404;28;20464;-74
2022/05/14 09:34:48;;;;;;;0.30;0.30;;;36.80;31.30;;;;;;5075348;28;20986;-73
2022/05/14 09:37:19;;;;;;;4.57;1.57;;;36.60;32.90;;;;;;5076653;28;20412;-74
2022/05/14 09:39:58;;;;;;;0.30;0.30;;;36.70;31.50;;;;;;5074931;28;20408;-74
2022/05/14 09:42:46;;;;;;;0.40;0.40;;;36.50;30.40;;;;;;5076482;28;20442;-74
2022/05/14 09:45:32;;;;;;;0.50;0.50;;;36.50;31.30;;;;;;5073909;28;20411;-74
2022/05/14 09:48:13;;;;;;;0.40;0.30;;;35.60;32.00;;;;;;5076278;28;20449;-74
2022/05/14 09:50:41;;;;;;;0.43;0.40;;;34.80;33.80;;;;;;5076304;28;20864;-74
2022/05/14 09:53:07;;;;;;;0.30;0.30;;;34.20;35.70;;;;;;5076335;28;20423;-74
2022/05/14 09:55:45;;;;;;;0.30;0.30;;;33.40;35.50;;;;;;5076448;28;20926;-73
2022/05/14 09:58:33;;;;;;;2.03;0.50;;;33.90;35.40;;;;;;5076582;28;20404;-74
2022/05/14 10:01:07;;;;;;;0.40;0.40;;;33.90;36.70;;;;;;5076290;28;20506;-73
2022/05/14 10:03:58;;;;;;;0.33;0.30;;;33.50;34.90;;;;;;5076302;28;20428;-73
2022/05/14 10:07:01;;;;;;;0.30;0.30;;;33.00;36.30;;;;;;5076484;28;20518;-73
2022/05/14 10:09:32;;;;;;;0.50;0.50;;;32.90;36.50;;;;;;5075095;28;20423;-73
2022/05/14 10:12:31;;;;;;;0.30;0.30;;;33.00;36.70;;;;;;5075957;28;20447;-73
2022/05/14 10:15:15;;;;;;;0.40;0.40;;;33.10;34.40;;;;;;5076096;28;20457;-73
2022/05/14 10:17:58;;;;;;;0.30;0.30;;;32.30;35.10;;;;;;5074837;28;20431;-73
2022/05/14 10:20:38;;;;;;;0.30;0.30;;;31.90;38.50;;;;;;5074520;28;20422;-73
2022/05/14 10:28:49;;;;;;;0.73;0.73;;;29.90;39.30;;;;;;5075800;28;20450;-73
2022/05/14 10:31:39;;;;;;;0.37;0.37;;;29.70;38.30;;;;;;5075893;28;20447;-73
2022/05/14 10:34:15;;;;;;;0.40;0.40;;;29.70;42.90;;;;;;5073296;28;20528;-73
2022/05/14 10:36:48;;;;;;;0.40;0.40;;;29.70;42.30;;;;;;5075647;28;20382;-73
2022/05/14 10:39:29;;;;;;;0.40;0.40;;;28.90;41.40;;;;;;5075962;28;20764;-73
2022/05/14 10:42:11;;;;;;;0.30;0.30;;;27.20;43.20;;;;;;5075616;28;20400;-73
2022/05/14 10:44:50;;;;;;;0.30;0.30;;;27.40;45.50;;;;;;5075485;28;20431;-73
2022/05/14 10:47:17;;;;;;;0.57;0.57;;;28.00;42.70;;;;;;5075735;28;20400;-73
2022/05/14 10:49:54;;;;;;;0.30;0.30;;;28.10;44.70;;;;;;5075475;28;20396;-73
2022/05/14 10:52:20;;;;;;;0.37;0.37;;;28.00;41.70;;;;;;5075384;28;20415;-73
2022/05/14 10:54:46;;;;;;;0.30;0.30;;;27.40;43.10;;;;;;5075522;28;20415;-73
2022/05/14 10:57:15;;;;;;;0.40;0.40;;;26.20;48.40;;;;;;5075428;28;20429;-72
2022/05/14 10:59:53;;;;;;;0.40;0.40;;;25.10;49.30;;;;;;5074118;28;20443;-73
2022/05/14 11:02:28;;;;;;;0.30;0.30;;;24.40;51.80;;;;;;5075190;28;20363;-73
2022/05/14 11:04:55;;;;;;;0.30;0.30;;;24.20;52.90;;;;;;5075104;28;20905;-73
2022/05/14 11:07:34;;;;;;;0.30;0.30;;;24.20;54.50;;;;;;5075285;28;20402;-73
2022/05/14 11:10:17;;;;;;;0.70;0.70;;;24.40;53.70;;;;;;5075067;28;20388;-73
2022/05/14 11:12:44;;;;;;;0.30;0.30;;;24.40;53.00;;;;;;5074992;28;20765;-73
2022/05/14 11:15:24;;;;;;;0.30;0.30;;;24.10;53.50;;;;;;5074992;28;20453;-73
2022/05/14 11:18:00;;;;;;;0.30;0.30;;;23.90;53.30;;;;;;5075172;28;20863;-73
2022/05/14 11:20:26;;;;;;;0.30;0.30;;;23.90;54.60;;;;;;5074688;28;20419;-73
2022/05/14 11:23:04;;;;;;;0.30;0.30;;;23.60;54.60;;;;;;5074658;28;20424;-73
2022/05/14 11:25:30;;;;;;;0.30;0.30;;;23.60;56.50;;;;;;5074888;28;20157;-73
2022/05/14 11:28:16;;;;;;;0.30;0.30;;;23.60;55.60;;;;;;5074994;28;20708;-73
2022/05/14 11:30:45;;;;;;;0.30;0.30;;;23.70;57.70;;;;;;5074683;28;20193;-73
2022/05/14 11:33:31;;;;;;;0.40;0.40;;;23.70;56.70;;;;;;5074821;28;20427;-73
2022/05/14 11:36:00;;;;;;;0.30;0.30;;;24.10;55.80;;;;;;5074801;28;20396;-73
2022/05/14 11:38:28;;;;;;;0.30;0.30;;;24.70;55.60;;;;;;5074769;28;20378;-73
2022/05/14 11:40:55;;;;;;;0.30;0.30;;;24.90;54.80;;;;;;5074351;28;20465;-73
2022/05/14 11:43:29;;;;;;;0.40;0.40;;;25.10;52.10;;;;;;5074356;28;20494;-73
2022/05/14 11:46:09;;;;;;;0.40;0.40;;;25.00;54.80;;;;;;5074120;28;20846;-73
2022/05/14 11:49:01;;;;;;;0.30;0.30;;;25.30;55.40;;;;;;5074215;28;20377;-73
2022/05/14 11:52:04;;;;;;;0.30;0.30;;;25.50;53.60;;;;;;5073999;28;20421;-72
2022/05/14 11:54:39;;;;;;;0.47;0.47;;;25.30;52.70;;;;;;5073971;28;20428;-72
2022/05/14 11:57:17;;;;;;;0.30;0.30;;;25.30;53.80;;;;;;5074230;28;20400;-72
2022/05/14 12:00:12;;;;;;;0.40;0.40;;;25.50;52.80;;;;;;5074182;28;20383;-73
2022/05/14 12:02:52;;;;;;;0.43;0.43;;;25.60;51.30;;;;;;5073891;28;20395;-73
2022/05/14 12:05:25;;;;;;;0.30;0.30;;;25.00;54.50;;;;;;5074027;28;20359;-73
2022/05/14 12:07:53;;;;;;;0.90;0.53;;;25.00;55.40;;;;;;5071994;28;20436;-73
2022/05/14 12:10:36;;;;;;;0.30;0.30;;;25.10;53.50;;;;;;5073308;28;20422;-73
2022/05/14 12:13:26;;;;;;;0.40;0.40;;;25.30;52.10;;;;;;5073600;28;20840;-73
2022/05/14 12:15:57;;;;;;;0.40;0.40;;;25.50;51.50;;;;;;5071205;28;20434;-73
2022/05/14 12:18:23;;;;;;;0.30;0.30;;;25.50;51.00;;;;;;5074011;28;20370;-73
2022/05/14 12:20:54;;;;;;;0.30;0.30;;;25.40;50.20;;;;;;5073606;28;20432;-73
2022/05/14 12:23:19;;;;;;;0.30;0.30;;;24.70;49.80;;;;;;5073489;28;20882;-72
2022/05/14 12:25:48;;;;;;;0.90;0.90;;;24.50;50.70;;;;;;5073987;28;20483;-72
2022/05/14 12:28:25;;;;;;;0.30;0.30;;;24.50;51.50;;;;;;5073733;28;20165;-72
2022/05/14 12:34:03;;;;;;;0.30;0.30;;;24.90;52.90;;;;;;5073785;28;20426;-72
2022/05/14 12:36:35;;;;;;;0.30;0.30;;;24.90;52.60;;;;;;5073318;28;20461;-72
2022/05/14 12:39:07;;;;;;;0.30;0.30;;;24.90;52.20;;;;;;5070366;28;20377;-72
2022/05/14 12:41:40;;;;;;;0.30;0.30;;;25.00;48.90;;;;;;5071899;28;20807;-73
2022/05/14 12:44:17;;;;;;;0.30;0.30;;;25.00;50.10;;;;;;5072840;28;20522;-73
2022/05/14 12:46:47;;;;;;;0.30;0.30;;;25.10;49.80;;;;;;5073304;28;20389;-72
2022/05/14 12:49:29;;;;;;;0.50;0.50;;;25.20;53.60;;;;;;5073262;28;20741;-73
2022/05/14 12:51:58;;;;;;;0.50;0.50;;;25.20;50.10;;;;;;5073707;28;20472;-73
2022/05/14 12:54:30;;;;;;;0.30;0.30;;;25.20;51.10;;;;;;5073255;28;20484;-73
2022/05/14 12:57:00;;;;;;;0.70;0.67;;;25.20;48.00;;;;;;5072651;28;20398;-72
2022/05/14 12:59:26;;;;;;;0.40;0.40;;;25.40;49.70;;;;;;5073373;28;20374;-73
2022/05/14 13:01:56;;;;;;;0.50;0.50;;;25.20;47.50;;;;;;5073305;28;20440;-73
2022/05/14 13:04:30;;;;;;;0.30;0.30;;;25.00;48.00;;;;;;5073143;28;20445;-73
2022/05/14 13:07:01;;;;;;;0.40;0.40;;;25.20;47.70;;;;;;5071843;28;20434;-72
2022/05/14 13:09:28;;;;;;;0.40;0.40;;;25.00;47.40;;;;;;5071419;28;20408;-73
2022/05/14 13:11:56;;;;;;;0.40;0.40;;;25.10;49.20;;;;;;5072705;28;20509;-72
2022/05/14 13:14:28;;;;;;;0.40;0.40;;;25.10;50.30;;;;;;5072361;28;20533;-72
2022/05/14 13:16:57;;;;;;;0.83;0.77;;;24.90;47.40;;;;;;5069852;28;20404;-72
2022/05/14 13:19:40;;;;;;;0.30;0.30;;;24.90;44.30;;;;;;5073355;28;20396;-73
2022/05/14 13:22:27;;;;;;;0.40;0.40;;;25.00;48.60;;;;;;5072678;28;20405;-73
2022/05/14 13:24:54;;;;;;;0.30;0.30;;;25.00;48.80;;;;;;5071231;28;21217;-72